Tulsa, OK

8:06 PM CDT on August 29, 2015 (GMT -0500)
Sheridan Valley - South Tulsa | | Change Station
CLOSE
Current Station
Personal Weather Station
Location: Tulsa, OK
Elevation: 774 ft
Nearby Weather Stations

Elev 774 ft 36.05 °N, 95.90 °W | Updated 36 seconds ago

Partly Cloudy
Partly Cloudy
80.9 °F
Feels Like 85 °F
N
0.0
Wind Variable Wind from North
Gusts 0.0 mph

Today
High -- | Low -- °F
--% Chance of Precip.
Yesterday
High -- | Low -- °F
Precip. -- in
6:52 AM 7:55 PM
Full, 100% visible
Pressure 29.95 in
Visibility 10.0 miles
Clouds Mostly Cloudy 5500 ft
Heat Index 85 °F
Dew Point 71 °F
Humidity 71%
Rainfall 0.00 in
Snow Depth Not available.
UV 0 out of 12
Pollen 8.20 out of 12
Air Quality Not available.
Flu Activity Not available.
METAR KRVS 300053Z 01004KT 10SM BKN055 27/21 A2994 RMK AO2 SLP142 T02670206
Pressure 29.95 in
Visibility 10.0 miles
Clouds Mostly Cloudy 5500 ft
Heat Index 85 °F
Dew Point 71 °F
Humidity 71%
Rainfall 0.00 in
Snow Depth Not available.
UV 0 out of 12
Pollen 8.20 out of 12
Air Quality Not available.
Flu Activity Not available.
METAR KRVS 300053Z 01004KT 10SM BKN055 27/21 A2994 RMK AO2 SLP142 T02670206
Nowcast | as of 6:52 PM CDT on August 29, 2015

At 6:52 PM...National Weather Service Doppler radars detected a line of isolated showers developing across northeast Oklahoma and into northwest Arkansas...mainly along a line from Okemah to Bentonville. All this activity was mainly stationary...with slight movement toward the northeast. Through 8:00 PM...isolated showers and perhaps a thunderstorm will remain possible...mainly across northeast Oklahoma and northwest Arkansas. Light to moderate rainfall can be expected...with less than a tenth of an inch per hour. No severe weather is anticipated.

×

10-Day Weather Forecast

×

Almanac

Astronomy

Aug. 29, 2015 Rise Set
Actual Time
Civil Twilight
Nautical Twilight
Astronomical Twilight
Moon
Length of Visible Light
Length of Day
Tomorrow will be .
, % of the Moon is Illuminated

Today's Extremes

State Highs State Lows

Community

WunderPhotos

Upload Photos

1,850,823 photos uploaded!

WunderBlogs® & News

Nearby

Air Quality

  Air Quality AQ Index Pollutant
Not available.

Snow Depth

Station Depth Elevation

Earthquake Activity

City Distance Mag. Time & Date
Minimum magnitude displayed is 2.5.

Coastal Water Temperatures

Place Temperature

Stations

Nearby Weather Stations

Station Location Temp. Windchill Dew Point Humidity Wind Precip. Elev Updated Type